createdAt,value
2023-01-03T00:08:44.401Z,99.98
2023-01-03T00:23:45.144Z,99.99
2023-01-03T00:38:45.320Z,99.99
2023-01-03T00:53:45.497Z,99.99
2023-01-03T01:08:46.297Z,99.99
2023-01-03T01:23:46.819Z,99.99
2023-01-03T01:38:47.091Z,99.99
2023-01-03T01:53:49.067Z,99.99
2023-01-03T02:08:51.607Z,99.99
2023-01-03T02:23:53.385Z,99.99
2023-01-03T02:38:53.545Z,99.99
2023-01-03T02:53:53.791Z,99.99
2023-01-03T03:08:53.985Z,99.99
2023-01-03T03:23:54.279Z,99.99
2023-01-03T03:38:56.258Z,99.99
2023-01-03T03:53:58.167Z,99.99
2023-01-03T04:08:59.096Z,99.99
2023-01-03T04:23:59.500Z,99.99
2023-01-03T04:38:59.717Z,99.52
2023-01-03T04:54:00.933Z,96.20
2023-01-03T05:09:01.112Z,92.61
2023-01-03T05:24:02.378Z,86.70
2023-01-03T05:39:03.506Z,86.04
2023-01-03T05:54:03.740Z,87.70
2023-01-03T06:09:05.453Z,87.18
2023-01-03T06:24:05.691Z,86.04
2023-01-03T06:39:05.908Z,86.87
2023-01-03T06:54:07.108Z,84.63
2023-01-03T07:09:07.341Z,80.37
2023-01-03T07:24:07.491Z,81.72
2023-01-03T07:39:07.648Z,82.59
2023-01-03T07:54:08.215Z,81.04
2023-01-03T08:09:08.512Z,81.41
2023-01-03T08:24:11.798Z,82.97
2023-01-03T08:39:11.826Z,89.36
2023-01-03T08:54:12.200Z,98.24
2023-01-03T09:09:12.657Z,99.99
2023-01-03T09:24:12.969Z,99.99
2023-01-03T09:39:13.441Z,99.99
2023-01-03T09:54:13.785Z,98.52
2023-01-03T10:09:13.986Z,95.75
2023-01-03T10:24:14.498Z,96.72
2023-01-03T10:39:14.890Z,98.47
2023-01-03T10:54:15.435Z,97.49
2023-01-03T11:09:16.370Z,92.92
2023-01-03T11:24:17.274Z,93.35
2023-01-03T11:39:22.815Z,94.12
2023-01-03T11:54:23.910Z,94.68
2023-01-03T12:09:24.430Z,96.02
2023-01-03T12:24:24.750Z,94.06
2023-01-03T12:39:30.851Z,94.93
2023-01-03T12:54:30.417Z,94.62
2023-01-03T13:09:31.036Z,96.23
2023-01-03T13:24:31.534Z,94.00
2023-01-03T13:39:31.602Z,94.42
2023-01-03T13:54:33.362Z,94.62
2023-01-03T14:09:35.230Z,96.99
2023-01-03T14:24:36.078Z,97.14
2023-01-03T14:40:25.762Z,98.63
2023-01-03T14:55:25.949Z,99.99
2023-01-03T15:10:26.539Z,99.99
2023-01-03T15:25:28.119Z,99.99
2023-01-03T15:40:28.663Z,99.99
2023-01-03T15:55:29.384Z,99.99
2023-01-03T16:10:30.982Z,99.99
2023-01-03T16:25:31.522Z,99.99
2023-01-03T16:40:33.198Z,99.99
2023-01-03T16:55:33.745Z,99.99
2023-01-03T17:10:35.627Z,95.47
2023-01-03T17:25:36.250Z,84.22
2023-01-03T17:40:36.902Z,72.64
2023-01-03T17:55:38.749Z,72.53
2023-01-03T18:10:45.739Z,74.45
2023-01-03T18:25:44.751Z,71.13
2023-01-03T18:40:45.242Z,69.07
2023-01-03T18:55:49.000Z,63.90
2023-01-03T19:10:50.929Z,54.45
2023-01-03T19:25:53.035Z,48.02
2023-01-03T19:40:55.636Z,44.42
2023-01-03T19:55:57.574Z,42.31
2023-01-03T20:10:58.680Z,41.35
2023-01-03T20:26:00.717Z,39.14
2023-01-03T20:41:00.891Z,38.82
2023-01-03T20:56:06.010Z,36.71
2023-01-03T21:11:08.344Z,36.87
2023-01-03T21:26:08.234Z,34.54
2023-01-03T21:41:10.066Z,28.91
2023-01-03T21:56:12.581Z,27.22
2023-01-03T22:11:14.328Z,31.46
2023-01-03T22:26:16.721Z,39.86
2023-01-03T22:41:18.620Z,48.27
2023-01-03T22:56:20.879Z,53.56
2023-01-03T23:11:20.808Z,54.42
2023-01-03T23:26:22.599Z,54.44
2023-01-03T23:41:24.708Z,52.05
2023-01-03T23:56:24.857Z,43.63
